Time;durP1;ratioP1;P1;durP2;ratioP2;P2;SDS_P1;SDS_P2;PMS_P1;PMS_P2;Temp;Humidity;BMP_temperature;BMP_pressure;BME280_temperature;BME280_humidity;BME280_pressure;Samples;Min_cycle;Max_cycle;Signal;HPM_P1;HPM_P2
2023/08/28 00:00:03;;;;;;;4.53;3.10;;;;;;;10.62;100.00;100365.25;702185;28;1254;-66
2023/08/28 00:00:27;;;;;;;4.40;3.00;;;;;;;10.61;100.00;100361.78;700636;28;1694;-64
2023/08/28 00:00:47;;;;;;;4.22;3.00;;;;;;;10.65;100.00;100363.50;701668;28;4548;-64
2023/08/28 00:01:07;;;;;;;5.22;2.90;;;;;;;10.71;100.00;100363.41;702208;28;1314;-64
2023/08/28 00:01:28;;;;;;;6.40;3.40;;;;;;;10.73;100.00;100360.81;702053;28;1840;-64
2023/08/28 00:01:48;;;;;;;5.67;3.23;;;;;;;10.75;100.00;100363.41;702241;28;1190;-65
2023/08/28 00:02:09;;;;;;;4.40;3.10;;;;;;;10.73;100.00;100366.03;702731;28;816;-64
2023/08/28 00:02:30;;;;;;;4.50;3.05;;;;;;;10.70;100.00;100366.03;700171;28;2475;-65
2023/08/28 00:02:50;;;;;;;5.10;3.10;;;;;;;10.70;100.00;100366.03;701034;28;811;-65
2023/08/28 00:03:11;;;;;;;5.78;3.15;;;;;;;10.71;100.00;100362.56;702017;28;948;-65
2023/08/28 00:03:31;;;;;;;5.10;3.20;;;;;;;10.73;100.00;100366.91;701213;28;2402;-65
2023/08/28 00:03:51;;;;;;;5.03;3.50;;;;;;;10.72;100.00;100365.16;703111;28;4336;-64
2023/08/28 00:04:12;;;;;;;4.70;3.40;;;;;;;10.75;100.00;100363.41;701745;28;1328;-64
2023/08/28 00:04:32;;;;;;;4.75;3.28;;;;;;;10.72;100.00;100361.69;701623;28;1361;-64
2023/08/28 00:04:52;;;;;;;5.23;3.30;;;;;;;10.70;100.00;100366.03;702617;28;781;-65
2023/08/28 00:05:13;;;;;;;5.07;3.00;;;;;;;10.65;100.00;100363.50;700034;28;1715;-64
2023/08/28 00:05:36;;;;;;;4.23;3.10;;;;;;;10.64;100.00;100366.97;702281;28;1146;-65
2023/08/28 00:05:56;;;;;;;5.15;3.08;;;;;;;10.66;100.00;100364.34;702328;28;1980;-65
2023/08/28 00:06:17;;;;;;;5.30;2.93;;;;;;;10.67;100.00;100366.09;702070;28;2216;-64
2023/08/28 00:06:37;;;;;;;4.32;3.00;;;;;;;10.67;100.00;100366.09;701397;28;922;-64
2023/08/28 00:06:58;;;;;;;5.27;3.30;;;;;;;10.68;100.00;100366.06;700421;28;4335;-64
2023/08/28 00:07:18;;;;;;;5.43;3.80;;;;;;;10.69;100.00;100369.56;699867;28;2207;-63
2023/08/28 00:07:38;;;;;;;4.73;3.20;;;;;;;10.67;100.00;100363.47;701761;28;823;-64
2023/08/28 00:08:04;;;;;;;5.70;3.40;;;;;;;10.66;100.00;100362.63;703195;28;847;-64
2023/08/28 00:08:24;;;;;;;5.55;3.10;;;;;;;10.68;100.00;100363.44;701435;28;1835;-65
2023/08/28 00:08:45;;;;;;;4.82;3.15;;;;;;;10.70;100.00;100361.69;702278;28;1350;-64
2023/08/28 00:09:05;;;;;;;4.63;3.33;;;;;;;10.71;100.00;100362.56;701796;28;1191;-64
2023/08/28 00:09:25;;;;;;;4.40;3.20;;;;;;;10.68;100.00;100367.81;700390;28;1712;-65
2023/08/28 00:09:46;;;;;;;4.88;2.90;;;;;;;10.65;100.00;100362.63;701591;28;4427;-64
2023/08/28 00:10:06;;;;;;;4.43;3.00;;;;;;;10.64;100.00;100364.38;702321;28;872;-65
2023/08/28 00:10:27;;;;;;;4.63;3.25;;;;;;;10.68;100.00;100358.22;701322;28;2372;-64
2023/08/28 00:10:48;;;;;;;4.28;2.90;;;;;;;10.70;100.00;100366.94;701055;28;1296;-64
2023/08/28 00:11:08;;;;;;;4.50;2.97;;;;;;;10.70;100.00;100366.03;701514;28;887;-65
2023/08/28 00:11:28;;;;;;;4.68;3.00;;;;;;;10.68;100.00;100360.84;700226;28;2369;-64
2023/08/28 00:11:49;;;;;;;4.43;2.97;;;;;;;10.63;100.00;100369.59;699366;28;970;-64
2023/08/28 00:12:09;;;;;;;5.28;2.90;;;;;;;10.63;100.00;100367.84;703069;28;1037;-65
2023/08/28 00:12:30;;;;;;;4.53;2.87;;;;;;;10.65;100.00;100362.63;699741;28;1041;-64
2023/08/28 00:12:51;;;;;;;4.50;2.97;;;;;;;10.64;100.00;100364.38;698210;28;4343;-64
2023/08/28 00:13:11;;;;;;;5.13;3.10;;;;;;;10.64;100.00;100371.34;700332;28;863;-64
2023/08/28 00:13:32;;;;;;;4.10;2.80;;;;;;;10.63;100.00;100362.63;699156;28;2469;-65
2023/08/28 00:13:52;;;;;;;4.55;2.90;;;;;;;10.63;100.00;100362.63;701264;28;1049;-65
2023/08/28 00:14:12;;;;;;;4.63;3.20;;;;;;;10.62;100.00;100366.13;701100;28;1409;-64
2023/08/28 00:14:33;;;;;;;4.18;3.10;;;;;;;10.60;100.00;100361.81;702384;28;2200;-64
2023/08/28 00:14:53;;;;;;;5.10;2.80;;;;;;;10.60;100.00;100364.41;702798;28;808;-64
2023/08/28 00:15:14;;;;;;;4.60;2.80;;;;;;;10.59;100.00;100355.69;701381;28;1844;-64
2023/08/28 00:15:34;;;;;;;4.60;2.83;;;;;;;10.61;100.00;100358.31;700952;28;1019;-64
2023/08/28 00:15:55;;;;;;;4.23;2.90;;;;;;;10.62;100.00;100362.63;701048;28;4425;-64
2023/08/28 00:16:15;;;;;;;4.60;2.78;;;;;;;10.62;100.00;100355.69;701215;28;3576;-64
2023/08/28 00:16:36;;;;;;;4.80;2.85;;;;;;;10.60;100.00;100362.66;701484;28;1357;-65
2023/08/28 00:16:56;;;;;;;5.23;2.77;;;;;;;10.61;100.00;100355.69;701592;28;923;-64
2023/08/28 00:17:17;;;;;;;4.88;2.78;;;;;;;10.61;100.00;100360.94;702382;28;1796;-65
2023/08/28 00:17:38;;;;;;;4.20;2.67;;;;;;;10.63;100.00;100356.53;701677;28;1314;-64
2023/08/28 00:17:58;;;;;;;4.10;2.67;;;;;;;10.65;100.00;100357.41;702590;28;895;-64
2023/08/28 00:18:19;;;;;;;4.50;2.50;;;;;;;10.65;100.00;100357.41;700077;28;2364;-63
2023/08/28 00:18:39;;;;;;;4.27;2.70;;;;;;;10.64;100.00;100355.66;700949;28;4486;-63
2023/08/28 00:18:59;;;;;;;3.97;2.60;;;;;;;10.65;100.00;100358.25;701929;28;1385;-65
2023/08/28 00:19:20;;;;;;;3.83;2.70;;;;;;;10.65;100.00;100360.03;701530;28;1168;-64
2023/08/28 00:19:41;;;;;;;3.65;2.60;;;;;;;10.64;100.00;100353.06;702853;28;947;-64
2023/08/28 00:20:02;;;;;;;3.55;2.58;;;;;;;10.69;100.00;100356.50;703046;28;820;-64
2023/08/28 00:20:23;;;;;;;4.78;2.40;;;;;;;10.69;100.00;100353.88;700284;28;2830;-65
2023/08/28 00:20:45;;;;;;;4.72;2.55;;;;;;;10.69;100.00;100357.34;702328;28;970;-64
2023/08/28 00:21:06;;;;;;;3.88;2.67;;;;;;;10.71;100.00;100352.09;702255;28;925;-64
2023/08/28 00:21:26;;;;;;;4.18;2.75;;;;;;;10.71;100.00;100358.19;700401;28;1843;-64
2023/08/28 00:21:47;;;;;;;4.00;2.50;;;;;;;10.71;100.00;100358.19;702000;28;4455;-64
2023/08/28 00:22:07;;;;;;;4.07;2.67;;;;;;;10.70;100.00;100352.97;701993;28;1228;-62
2023/08/28 00:22:28;;;;;;;4.83;2.60;;;;;;;10.68;100.00;100360.84;701036;28;1165;-63
2023/08/28 00:22:49;;;;;;;3.63;2.30;;;;;;;10.70;100.00;100351.25;702114;28;1239;-64
2023/08/28 00:23:09;;;;;;;3.75;2.40;;;;;;;10.68;100.00;100350.38;703126;28;1028;-64
2023/08/28 00:23:33;;;;;;;3.60;2.40;;;;;;;10.70;100.00;100355.59;699955;28;1807;-64
2023/08/28 00:23:53;;;;;;;4.55;2.55;;;;;;;10.66;100.00;100354.78;698378;28;2947;-64
2023/08/28 00:24:14;;;;;;;3.77;2.40;;;;;;;10.62;100.00;100358.31;700314;28;1282;-63
2023/08/28 00:24:34;;;;;;;4.10;2.42;;;;;;;10.57;100.00;100355.72;702869;28;860;-64
2023/08/28 00:24:55;;;;;;;8.03;2.93;;;;;;;10.54;100.00;100360.13;698425;28;4335;-65
2023/08/28 00:25:15;;;;;;;4.73;2.60;;;;;;;10.51;100.00;100349.69;697293;28;1823;-64
2023/08/28 00:25:36;;;;;;;4.47;2.70;;;;;;;10.50;100.00;100354.03;699028;28;926;-64
2023/08/28 00:25:56;;;;;;;4.27;2.73;;;;;;;10.50;100.00;100359.25;701410;28;1917;-64
2023/08/28 00:26:16;;;;;;;3.50;2.33;;;;;;;10.50;100.00;100359.25;700911;28;1951;-65
2023/08/28 00:26:37;;;;;;;3.42;2.42;;;;;;;10.52;100.00;100357.53;700761;28;824;-65
2023/08/28 00:26:57;;;;;;;3.90;2.57;;;;;;;10.52;100.00;100357.53;699095;28;1099;-64
2023/08/28 00:27:20;;;;;;;4.78;2.60;;;;;;;10.51;100.00;100347.94;698018;28;1766;-64
2023/08/28 00:27:40;;;;;;;4.10;2.50;;;;;;;10.51;100.00;100355.78;701159;28;4478;-64
2023/08/28 00:28:01;;;;;;;4.03;2.40;;;;;;;10.51;100.00;100350.56;702006;28;958;-67
2023/08/28 00:28:22;;;;;;;4.47;2.33;;;;;;;10.52;100.00;100354.91;698415;28;2381;-64
2023/08/28 00:28:42;;;;;;;3.83;2.40;;;;;;;10.53;100.00;100353.16;699287;28;797;-64
2023/08/28 00:29:03;;;;;;;4.17;2.50;;;;;;;10.50;100.00;100358.41;700287;28;1009;-64
2023/08/28 00:29:23;;;;;;;3.67;2.50;;;;;;;10.52;100.00;100362.75;697698;28;1226;-64
2023/08/28 00:29:43;;;;;;;3.90;2.53;;;;;;;10.49;100.00;100352.31;699439;28;1331;-64
2023/08/28 00:30:04;;;;;;;4.17;2.70;;;;;;;10.46;100.00;100357.56;696344;28;909;-65
2023/08/28 00:30:25;;;;;;;3.92;2.60;;;;;;;10.45;100.00;100360.19;693611;28;2598;-64
2023/08/28 00:30:45;;;;;;;4.30;2.60;;;;;;;10.45;100.00;100361.03;694724;28;4524;-64
2023/08/28 00:31:06;;;;;;;5.03;2.60;;;;;;;10.44;100.00;100364.56;694380;28;1648;-64
2023/08/28 00:31:26;;;;;;;3.88;2.50;;;;;;;10.43;100.00;100367.19;693017;28;1809;-64
2023/08/28 00:31:47;;;;;;;4.27;2.50;;;;;;;10.42;100.00;100355.84;695693;28;1186;-65
2023/08/28 00:32:07;;;;;;;4.20;2.65;;;;;;;10.40;100.00;100362.84;695104;28;1186;-64
2023/08/28 00:32:28;;;;;;;4.32;2.70;;;;;;;10.43;100.00;100364.59;695090;28;1691;-64
2023/08/28 00:32:48;;;;;;;4.50;2.57;;;;;;;10.43;100.00;100362.81;699409;28;1073;-65
2023/08/28 00:33:09;;;;;;;4.00;2.47;;;;;;;10.42;100.00;100360.22;699327;28;907;-64
2023/08/28 00:33:29;;;;;;;3.83;2.57;;;;;;;10.42;100.00;100366.31;695322;28;1724;-65
2023/08/28 00:33:51;;;;;;;4.03;2.42;;;;;;;10.43;100.00;100368.06;699676;28;4566;-64
2023/08/28 00:34:11;;;;;;;4.47;2.53;;;;;;;10.42;100.00;100366.31;701361;28;880;-64
2023/08/28 00:34:40;;;;;;;4.23;2.50;;;;;;;10.40;100.00;100360.25;697187;28;1622;-64
2023/08/28 00:35:00;;;;;;;3.88;2.50;;;;;;;10.37;100.00;100362.84;696287;28;980;-65
2023/08/28 00:35:21;;;;;;;3.70;2.57;;;;;;;10.35;100.00;100362.03;695831;28;2293;-63
2023/08/28 00:35:42;;;;;;;3.70;2.60;;;;;;;10.35;100.00;100367.25;693924;28;1215;-64
2023/08/28 00:36:03;;;;;;;4.30;2.60;;;;;;;10.34;100.00;100365.47;694384;28;1333;-63
2023/08/28 00:36:24;;;;;;;4.03;2.43;;;;;;;10.34;100.00;100363.78;695191;28;1789;-64
2023/08/28 00:36:44;;;;;;;3.50;2.47;;;;;;;10.35;100.00;100356.78;694880;28;4348;-64
2023/08/28 00:37:05;;;;;;;4.13;2.70;;;;;;;10.34;100.00;100362.88;694765;28;1179;-64
2023/08/28 00:37:26;;;;;;;3.70;2.63;;;;;;;10.28;100.00;100358.56;694533;28;2083;-64
2023/08/28 00:37:47;;;;;;;3.50;2.57;;;;;;;10.25;100.00;100358.59;695298;28;1267;-64
2023/08/28 00:38:10;;;;;;;4.25;2.60;;;;;;;10.26;100.00;100367.28;693368;28;963;-64
2023/08/28 00:38:30;;;;;;;3.92;2.58;;;;;;;10.26;100.00;100365.56;696338;28;1722;-64
2023/08/28 00:38:50;;;;;;;3.70;2.60;;;;;;;10.28;100.00;100355.94;698075;28;5346;-64
2023/08/28 00:39:11;;;;;;;5.10;2.58;;;;;;;10.30;100.00;100366.38;698453;28;1360;-64
2023/08/28 00:39:31;;;;;;;4.90;2.47;;;;;;;10.31;100.00;100357.66;695422;28;2655;-64
2023/08/28 00:39:51;;;;;;;3.43;2.50;;;;;;;10.30;100.00;100356.81;696183;28;4372;-65
2023/08/28 00:40:13;;;;;;;3.80;2.50;;;;;;;10.26;100.00;100355.09;697172;28;862;-64
2023/08/28 00:40:40;;;;;;;3.58;2.78;;;;;;;10.22;100.00;100349.03;694258;28;1384;-63
2023/08/28 00:41:03;;;;;;;3.78;2.60;;;;;;;10.21;100.00;100362.09;696517;28;903;-64
2023/08/28 00:41:23;;;;;;;3.63;2.60;;;;;;;10.26;100.00;100356.84;697200;28;1584;-64
2023/08/28 00:41:43;;;;;;;4.00;2.60;;;;;;;10.25;100.00;100352.50;702713;28;1636;-63
2023/08/28 00:42:04;;;;;;;3.70;2.80;;;;;;;10.23;100.00;100357.72;705218;27;1335;-64
2023/08/28 00:42:25;;;;;;;3.88;2.75;;;;;;;10.20;100.00;100350.81;702858;27;1748;-64
2023/08/28 00:42:45;;;;;;;4.30;2.87;;;;;;;10.20;100.00;100358.63;704780;27;4314;-63
2023/08/28 00:43:09;;;;;;;4.03;2.85;;;;;;;10.20;100.00;100356.03;703312;28;1525;-64
2023/08/28 00:43:30;;;;;;;4.63;2.97;;;;;;;10.23;100.00;100352.50;698904;28;2523;-65
2023/08/28 00:43:50;;;;;;;4.82;2.85;;;;;;;10.25;100.00;100353.38;698202;28;1142;-64
2023/08/28 00:44:11;;;;;;;4.37;2.50;;;;;;;10.27;100.00;100348.97;698018;28;876;-65
2023/08/28 00:44:32;;;;;;;4.63;2.37;;;;;;;10.29;100.00;100351.59;696997;28;1778;-64
2023/08/28 00:44:54;;;;;;;4.95;2.75;;;;;;;10.29;100.00;100349.84;698935;28;1093;-64
2023/08/28 00:45:14;;;;;;;5.93;2.92;;;;;;;10.29;100.00;100346.38;698920;28;1419;-65
2023/08/28 00:45:41;;;;;;;10.20;3.55;;;;;;;10.31;100.00;100353.31;696848;28;1524;-64
2023/08/28 00:46:03;;;;;;;4.68;2.80;;;;;;;10.34;100.00;100357.63;697166;28;4952;-64
2023/08/28 00:46:24;;;;;;;4.80;2.83;;;;;;;10.34;100.00;100358.56;693907;28;1946;-63
2023/08/28 00:46:44;;;;;;;4.10;2.67;;;;;;;10.34;100.00;100357.63;691745;28;1330;-64
2023/08/28 00:47:06;;;;;;;4.10;2.80;;;;;;;10.37;100.00;100355.91;694819;28;1300;-65
2023/08/28 00:47:27;;;;;;;4.35;2.80;;;;;;;10.38;100.00;100362.00;693829;28;2336;-64
2023/08/28 00:47:48;;;;;;;4.83;2.80;;;;;;;10.41;100.00;100355.88;691727;28;1388;-64
2023/08/28 00:48:12;;;;;;;5.80;2.63;;;;;;;10.43;100.00;100362.81;695663;28;1374;-64
2023/08/28 00:48:33;;;;;;;5.28;2.80;;;;;;;10.42;100.00;100363.69;695319;28;1736;-63
2023/08/28 00:48:55;;;;;;;6.00;3.13;;;;;;;10.41;100.00;100359.34;699046;28;4316;-64
2023/08/28 00:49:15;;;;;;;5.30;3.28;;;;;;;10.38;100.00;100359.38;697370;28;1954;-63
2023/08/28 00:49:36;;;;;;;4.35;2.92;;;;;;;10.36;100.00;100361.16;695070;28;1164;-64
2023/08/28 00:49:57;;;;;;;4.00;2.60;;;;;;;10.35;100.00;100360.25;696270;28;1393;-63
2023/08/28 00:50:18;;;;;;;4.30;2.63;;;;;;;10.33;100.00;100358.53;694419;28;1446;-65
2023/08/28 00:50:38;;;;;;;4.28;2.70;;;;;;;10.32;100.00;100359.41;696092;28;1163;-64
2023/08/28 00:51:00;;;;;;;4.50;2.60;;;;;;;10.30;100.00;100363.75;697617;28;770;-65
2023/08/28 00:51:20;;;;;;;4.13;2.72;;;;;;;10.25;100.00;100368.19;693933;28;2326;-64
2023/08/28 00:51:43;;;;;;;4.80;2.70;;;;;;;10.23;100.00;100369.06;693514;28;4419;-64
2023/08/28 00:52:05;;;;;;;3.80;2.67;;;;;;;10.28;100.00;100370.78;696552;28;969;-64
2023/08/28 00:52:27;;;;;;;3.80;2.70;;;;;;;10.34;100.00;100373.31;694641;28;1870;-64
2023/08/28 00:52:48;;;;;;;4.10;2.70;;;;;;;10.33;100.00;100359.41;697132;28;1345;-64
2023/08/28 00:53:11;;;;;;;3.87;2.63;;;;;;;10.29;100.00;100364.66;696675;28;860;-64
2023/08/28 00:53:34;;;;;;;4.28;2.70;;;;;;;10.26;100.00;100367.28;695482;28;1452;-64
2023/08/28 00:53:55;;;;;;;4.28;2.63;;;;;;;10.22;100.00;100374.31;698252;28;1275;-63
2023/08/28 00:54:17;;;;;;;4.38;2.70;;;;;;;10.22;100.00;100371.69;698162;28;1179;-64
2023/08/28 00:54:41;;;;;;;4.60;2.80;;;;;;;10.26;100.00;100369.91;696667;28;1277;-63
2023/08/28 00:55:03;;;;;;;4.70;2.67;;;;;;;10.23;100.00;100371.66;695128;28;6132;-64
2023/08/28 00:55:24;;;;;;;4.30;2.55;;;;;;;10.19;100.00;100364.75;699491;28;2236;-64
2023/08/28 00:55:44;;;;;;;3.75;2.63;;;;;;;10.19;100.00;100364.75;703156;28;741;-64
2023/08/28 00:56:05;;;;;;;3.97;2.70;;;;;;;10.17;100.00;100369.09;701395;28;1214;-64
2023/08/28 00:56:25;;;;;;;3.70;2.45;;;;;;;10.17;100.00;100366.47;700101;28;1513;-64
2023/08/28 00:56:47;;;;;;;4.10;2.50;;;;;;;10.15;100.00;100364.75;701053;28;1406;-64
2023/08/28 00:57:09;;;;;;;3.47;2.40;;;;;;;10.15;100.00;100365.63;700529;28;1494;-63
2023/08/28 00:57:31;;;;;;;3.78;2.47;;;;;;;10.20;100.00;100371.69;696849;28;1866;-64
2023/08/28 00:57:52;;;;;;;4.13;2.72;;;;;;;10.17;100.00;100361.25;697881;28;4348;-64
2023/08/28 00:58:13;;;;;;;4.40;2.80;;;;;;;10.14;100.00;100360.44;698085;28;1337;-64
2023/08/28 00:58:34;;;;;;;3.75;2.63;;;;;;;10.12;100.00;100362.16;697748;28;2234;-63
2023/08/28 00:58:55;;;;;;;4.05;2.83;;;;;;;10.12;100.00;100354.34;698336;28;928;-64
2023/08/28 00:59:16;;;;;;;4.30;2.70;;;;;;;10.12;100.00;100362.16;696355;28;873;-64
2023/08/28 00:59:37;;;;;;;4.05;2.90;;;;;;;10.10;100.00;100356.97;696717;28;873;-64
2023/08/28 00:59:57;;;;;;;5.33;3.20;;;;;;;10.10;100.00;100349.13;698135;28;1369;-64
2023/08/28 01:00:18;;;;;;;5.80;3.13;;;;;;;10.12;100.00;100362.16;693592;28;2391;-64
2023/08/28 01:00:41;;;;;;;4.57;2.97;;;;;;;10.12;100.00;100356.94;696708;28;1383;-63
2023/08/28 01:01:01;;;;;;;3.83;2.63;;;;;;;10.15;100.00;100352.56;697714;28;4769;-63
2023/08/28 01:01:21;;;;;;;4.13;2.92;;;;;;;10.15;100.00;100355.19;691306;28;1080;-65
2023/08/28 01:01:43;;;;;;;5.03;3.20;;;;;;;10.15;100.00;100352.56;695251;28;1223;-64
2023/08/28 01:02:04;;;;;;;5.18;3.30;;;;;;;10.16;100.00;100361.28;696339;28;1440;-63
2023/08/28 01:02:24;;;;;;;4.70;3.17;;;;;;;10.20;100.00;100355.13;695328;28;2426;-64
2023/08/28 01:02:46;;;;;;;5.15;3.08;;;;;;;10.20;100.00;100361.25;696028;28;946;-64
2023/08/28 01:03:06;;;;;;;4.35;2.90;;;;;;;10.23;100.00;100348.16;698797;28;967;-64
2023/08/28 01:03:27;;;;;;;4.37;3.37;;;;;;;10.25;100.00;100350.75;696501;28;1836;-65
2023/08/28 01:03:47;;;;;;;4.68;3.60;;;;;;;10.29;100.00;100349.84;696625;28;4438;-63
2023/08/28 01:04:08;;;;;;;5.30;3.93;;;;;;;10.37;100.00;100353.28;698987;28;828;-64
2023/08/28 01:04:28;;;;;;;4.35;3.50;;;;;;;10.38;100.00;100343.69;699738;28;2316;-64
2023/08/28 01:04:51;;;;;;;5.75;3.17;;;;;;;10.39;100.00;100350.66;697132;28;1299;-64
2023/08/28 01:05:12;;;;;;;5.00;3.20;;;;;;;10.39;100.00;100353.28;696179;28;1320;-64
2023/08/28 01:05:45;;;;;;;4.40;3.15;;;;;;;10.38;100.00;100346.31;696938;28;1448;-63
2023/08/28 01:06:47;;;;;;;4.85;3.05;;;;;;;10.33;100.00;100345.47;699655;28;1910;-64
2023/08/28 01:07:19;;;;;;;4.63;3.20;;;;;;;10.27;100.00;100348.97;697750;28;4941;-64
2023/08/28 01:08:02;;;;;;;5.43;3.30;;;;;;;10.25;100.00;100347.28;698664;28;1229;-64
2023/08/28 01:08:33;;;;;;;4.97;3.40;;;;;;;10.23;100.00;100342.94;696969;28;2393;-64
2023/08/28 01:09:03;;;;;;;5.35;3.38;;;;;;;10.16;100.00;100345.59;696180;28;1021;-64
2023/08/28 01:10:18;;;;;;;5.57;3.45;;;;;;;10.09;100.00;100351.75;699612;28;2218;-64
2023/08/28 01:10:47;;;;;;;5.30;3.35;;;;;;;10.08;100.00;100345.69;688512;28;6494;-64
2023/08/28 01:11:14;;;;;;;6.72;3.58;;;;;;;10.10;100.00;100348.28;688961;28;970;-64
2023/08/28 01:11:54;;;;;;;5.47;3.75;;;;;;;10.08;100.00;100352.63;696046;28;2201;-64
2023/08/28 01:12:29;;;;;;;4.97;3.40;;;;;;;10.15;100.00;100355.19;692950;28;1408;-63
2023/08/28 01:13:14;;;;;;;4.75;3.47;;;;;;;10.19;100.00;100358.63;700058;28;1644;-65
2023/08/28 01:13:47;;;;;;;6.07;3.58;;;;;;;10.20;100.00;100350.81;698425;28;1132;-64
2023/08/28 01:14:28;;;;;;;4.97;3.38;;;;;;;10.16;100.00;100359.53;697174;28;2139;-64
2023/08/28 01:15:12;;;;;;;5.68;3.55;;;;;;;10.09;100.00;100354.38;696332;28;1526;-62
2023/08/28 01:15:34;;;;;;;4.28;3.30;;;;;;;10.04;100.00;100359.63;695380;28;1459;-64
2023/08/28 01:15:55;;;;;;;5.30;3.60;;;;;;;10.05;100.00;100356.13;696456;28;4412;-63
2023/08/28 01:16:17;;;;;;;5.22;3.53;;;;;;;10.07;100.00;100353.53;701627;28;900;-64
2023/08/28 01:16:40;;;;;;;5.28;3.40;;;;;;;10.08;100.00;100356.13;698281;28;1454;-65
2023/08/28 01:17:04;;;;;;;5.38;3.30;;;;;;;10.09;100.00;100356.97;698635;28;861;-64
2023/08/28 01:17:26;;;;;;;5.45;3.58;;;;;;;10.08;100.00;100356.13;701379;28;2215;-63
2023/08/28 01:18:00;;;;;;;6.22;3.70;;;;;;;10.07;100.00;100358.75;698050;28;1210;-64
2023/08/28 01:18:21;;;;;;;4.95;3.42;;;;;;;10.13;100.00;100353.47;693886;28;2475;-64
2023/08/28 01:18:41;;;;;;;5.22;3.30;;;;;;;10.17;100.00;100350.81;696088;28;4413;-64
2023/08/28 01:19:06;;;;;;;5.75;3.30;;;;;;;10.18;100.00;100355.16;701126;28;1371;-63
2023/08/28 01:19:40;;;;;;;5.15;3.25;;;;;;;10.18;100.00;100346.47;697027;28;2378;-64
2023/08/28 01:20:03;;;;;;;4.63;3.28;;;;;;;10.21;100.00;100347.28;692598;28;3103;-65
2023/08/28 01:20:27;;;;;;;5.22;3.50;;;;;;;10.22;100.00;100349.03;694052;28;1576;-64
2023/08/28 01:20:49;;;;;;;4.57;3.20;;;;;;;10.21;100.00;100344.69;692931;28;1602;-64
2023/08/28 01:21:09;;;;;;;4.93;3.17;;;;;;;10.26;100.00;100349.00;694234;28;956;-64
2023/08/28 01:21:31;;;;;;;5.60;3.28;;;;;;;10.24;100.00;100351.63;699938;28;2348;-64
2023/08/28 01:22:09;;;;;;;5.88;3.30;;;;;;;10.19;100.00;100349.06;701394;28;4625;-64
2023/08/28 01:22:44;;;;;;;4.55;3.08;;;;;;;10.16;100.00;100348.22;702240;27;2051;-64
2023/08/28 01:23:04;;;;;;;4.20;2.90;;;;;;;10.16;100.00;100349.09;702804;28;1274;-64
2023/08/28 01:23:37;;;;;;;4.45;2.90;;;;;;;10.20;100.00;100349.91;698123;28;2733;-63
2023/08/28 01:24:00;;;;;;;4.00;2.78;;;;;;;10.21;100.00;100351.66;697250;28;962;-63
2023/08/28 01:24:25;;;;;;;4.40;2.80;;;;;;;10.20;100.00;100344.69;698652;28;1313;-63
2023/08/28 01:24:51;;;;;;;4.82;3.13;;;;;;;10.16;100.00;100349.09;697199;28;4424;-64
2023/08/28 01:25:12;;;;;;;5.03;3.45;;;;;;;10.11;100.00;100350.00;700434;28;986;-63
2023/08/28 01:25:35;;;;;;;4.45;3.40;;;;;;;10.09;100.00;100349.16;699093;28;2142;-64
2023/08/28 01:25:58;;;;;;;5.20;3.58;;;;;;;10.05;100.00;100356.13;698971;28;2148;-63
2023/08/28 01:26:21;;;;;;;5.00;3.40;;;;;;;10.03;100.00;100347.44;698641;28;1778;-63
2023/08/28 01:26:42;;;;;;;5.07;3.60;;;;;;;10.01;100.00;100351.78;701342;28;1321;-63
2023/08/28 01:27:03;;;;;;;5.35;3.55;;;;;;;10.00;100.00;100348.34;698723;28;1211;-64
2023/08/28 01:27:23;;;;;;;5.10;3.50;;;;;;;10.02;100.00;100343.09;698072;28;2297;-63
2023/08/28 01:27:44;;;;;;;4.88;3.50;;;;;;;10.05;100.00;100348.28;697644;28;4556;-64
2023/08/28 01:28:04;;;;;;;4.80;3.40;;;;;;;10.12;100.00;100346.50;699433;28;900;-64
2023/08/28 01:28:27;;;;;;;5.33;3.70;;;;;;;10.16;100.00;100342.97;693630;28;2442;-63
2023/08/28 01:28:48;;;;;;;5.82;4.00;;;;;;;10.21;100.00;100357.75;692466;28;995;-64
2023/08/28 01:29:08;;;;;;;5.95;3.58;;;;;;;10.23;100.00;100349.88;693076;28;1353;-63
2023/08/28 01:29:30;;;;;;;5.70;3.70;;;;;;;10.16;100.00;100341.25;694920;28;2959;-64
2023/08/28 01:30:13;;;;;;;5.85;3.60;;;;;;;10.09;100.00;100349.16;696636;28;1582;-63
2023/08/28 01:30:33;;;;;;;4.78;3.47;;;;;;;10.03;100.00;100347.44;700286;28;1908;-63
2023/08/28 01:30:53;;;;;;;5.10;3.60;;;;;;;10.00;100.00;100344.88;699391;28;4465;-64
2023/08/28 01:31:14;;;;;;;5.38;3.67;;;;;;;10.00;100.00;100347.47;699079;28;1018;-64
2023/08/28 01:31:34;;;;;;;5.77;3.80;;;;;;;10.01;100.00;100341.34;702705;27;1807;-64
2023/08/28 01:31:55;;;;;;;4.85;3.83;;;;;;;10.03;100.00;100343.06;705852;27;868;-64
2023/08/28 01:32:15;;;;;;;5.30;3.90;;;;;;;9.99;100.00;100346.59;701674;28;864;-63
2023/08/28 01:32:36;;;;;;;6.17;3.87;;;;;;;9.98;100.00;100350.09;697268;28;2360;-62
2023/08/28 01:32:57;;;;;;;6.13;4.20;;;;;;;9.97;100.00;100340.53;699275;28;1251;-63
2023/08/28 01:33:19;;;;;;;7.07;3.90;;;;;;;9.97;100.00;100348.38;698634;28;2392;-62
2023/08/28 01:33:40;;;;;;;7.15;3.80;;;;;;;9.97;100.00;100344.88;700473;28;4365;-63
2023/08/28 01:34:01;;;;;;;5.55;3.90;;;;;;;9.97;100.00;100342.25;701295;28;1149;-63
2023/08/28 01:34:21;;;;;;;5.57;4.00;;;;;;;10.00;100.00;100344.88;702307;28;2682;-63
2023/08/28 01:34:42;;;;;;;5.93;4.07;;;;;;;10.04;100.00;100339.59;703117;28;934;-64
2023/08/28 01:35:09;;;;;;;6.20;3.85;;;;;;;10.09;100.00;100347.38;703972;28;899;-63
2023/08/28 01:35:32;;;;;;;5.57;4.00;;;;;;;10.12;100.00;100336.94;699691;28;1742;-63
2023/08/28 01:36:09;;;;;;;5.40;3.90;;;;;;;10.12;100.00;100339.53;699393;28;1204;-63
2023/08/28 01:37:08;;;;;;;5.30;3.97;;;;;;;10.21;100.00;100334.22;698578;28;2215;-64
2023/08/28 01:37:38;;;;;;;5.95;3.97;;;;;;;10.17;100.00;100336.88;685782;28;5002;-64
2023/08/28 01:38:07;;;;;;;5.70;3.97;;;;;;;10.18;100.00;100339.47;689658;28;948;-63
2023/08/28 01:38:36;;;;;;;6.15;4.38;;;;;;;10.15;100.00;100338.63;692095;28;1716;-64
2023/08/28 01:39:04;;;;;;;5.32;3.95;;;;;;;10.15;100.00;100336.91;695623;28;5352;-65
2023/08/28 01:39:33;;;;;;;5.80;4.00;;;;;;;10.15;100.00;100331.69;699793;28;1343;-64
2023/08/28 01:40:00;;;;;;;6.15;4.07;;;;;;;10.16;100.00;100336.03;700785;28;4317;-63
2023/08/28 01:40:25;;;;;;;5.32;4.10;;;;;;;10.14;100.00;100335.16;699441;28;1751;-64
2023/08/28 01:40:52;;;;;;;5.22;4.13;;;;;;;10.14;100.00;100345.63;698018;28;2233;-63
2023/08/28 01:41:17;;;;;;;5.80;4.00;;;;;;;10.14;100.00;100335.16;697220;28;2118;-63
2023/08/28 01:41:40;;;;;;;5.90;3.80;;;;;;;10.14;100.00;100335.16;692836;28;2177;-63
2023/08/28 01:42:00;;;;;;;6.05;4.10;;;;;;;10.14;100.00;100337.78;693558;28;813;-64
2023/08/28 01:42:21;;;;;;;6.00;4.20;;;;;;;10.12;100.00;100336.94;697531;28;1356;-63
2023/08/28 01:42:45;;;;;;;5.30;3.92;;;;;;;10.18;100.00;100334.25;693946;28;4841;-63
2023/08/28 01:43:11;;;;;;;5.10;4.07;;;;;;;10.22;100.00;100338.59;696564;28;1697;-63
2023/08/28 01:43:36;;;;;;;5.47;4.22;;;;;;;10.21;100.00;100333.38;693964;28;1812;-63
2023/08/28 01:44:00;;;;;;;6.22;4.32;;;;;;;10.21;100.00;100328.16;697161;28;963;-63
2023/08/28 01:44:27;;;;;;;5.82;3.90;;;;;;;10.21;100.00;100338.59;697991;28;1808;-63
2023/08/28 01:44:54;;;;;;;6.03;3.70;;;;;;;10.20;100.00;100340.34;696672;28;2134;-63
2023/08/28 01:45:15;;;;;;;5.55;3.90;;;;;;;10.20;100.00;100336.84;698105;28;998;-63
2023/08/28 01:45:38;;;;;;;5.32;3.90;;;;;;;10.20;100.00;100336.84;698428;28;1722;-63
2023/08/28 01:45:58;;;;;;;6.57;3.92;;;;;;;10.19;100.00;100333.38;693986;28;4482;-64
2023/08/28 01:46:19;;;;;;;7.78;4.00;;;;;;;10.21;100.00;100338.59;692321;28;1343;-64
2023/08/28 01:46:40;;;;;;;5.80;3.90;;;;;;;10.19;100.00;100328.16;693274;28;805;-64
2023/08/28 01:47:01;;;;;;;5.07;3.92;;;;;;;10.17;100.00;100335.13;692705;28;1574;-63
2023/08/28 01:47:23;;;;;;;6.05;4.07;;;;;;;10.17;100.00;100329.91;691911;28;1750;-64
2023/08/28 01:47:46;;;;;;;5.57;3.90;;;;;;;10.19;100.00;100328.16;696952;28;1605;-63
2023/08/28 01:48:07;;;;;;;5.38;4.28;;;;;;;10.20;100.00;100334.25;695745;28;1196;-63